createdAt,value
2024-02-02T00:05:00.377Z,100.00
2024-02-02T00:10:40.829Z,100.00
2024-02-02T00:16:22.055Z,100.00
2024-02-02T00:22:02.683Z,100.00
2024-02-02T00:27:43.546Z,100.00
2024-02-02T00:33:24.072Z,100.00
2024-02-02T00:39:05.631Z,100.00
2024-02-02T00:44:46.929Z,100.00
2024-02-02T00:50:27.910Z,100.00
2024-02-02T00:56:08.697Z,100.00
2024-02-02T01:05:18.821Z,100.00
2024-02-02T01:11:01.920Z,100.00
2024-02-02T01:16:42.642Z,100.00
2024-02-02T01:22:23.916Z,100.00
2024-02-02T01:28:05.737Z,100.00
2024-02-02T01:33:47.131Z,100.00
2024-02-02T01:39:27.554Z,100.00
2024-02-02T01:45:09.649Z,100.00
2024-02-02T01:50:50.180Z,100.00
2024-02-02T01:56:30.701Z,100.00
2024-02-02T02:02:13.235Z,100.00
2024-02-02T02:07:53.785Z,100.00
2024-02-02T02:13:35.239Z,100.00
2024-02-02T02:19:15.656Z,100.00
2024-02-02T02:24:56.416Z,100.00
2024-02-02T02:30:37.325Z,100.00
2024-02-02T02:36:18.950Z,100.00
2024-02-02T02:41:59.942Z,100.00
2024-02-02T02:47:41.614Z,100.00
2024-02-02T02:53:23.420Z,100.00
2024-02-02T02:59:03.613Z,100.00
2024-02-02T03:04:44.002Z,100.00
2024-02-02T03:10:28.264Z,100.00
2024-02-02T03:16:09.056Z,100.00
2024-02-02T03:21:49.839Z,100.00
2024-02-02T03:27:30.697Z,100.00
2024-02-02T03:33:11.680Z,100.00
2024-02-02T03:38:52.764Z,100.00
2024-02-02T03:44:34.607Z,100.00
2024-02-02T03:50:15.378Z,100.00
2024-02-02T03:55:56.320Z,100.00
2024-02-02T04:05:27.406Z,100.00
2024-02-02T04:11:09.817Z,100.00
2024-02-02T04:16:50.494Z,100.00
2024-02-02T04:22:31.535Z,100.00
2024-02-02T04:28:11.596Z,100.00
2024-02-02T04:33:52.448Z,100.00
2024-02-02T04:39:33.083Z,100.00
2024-02-02T04:45:14.765Z,100.00
2024-02-02T04:50:56.632Z,100.00
2024-02-02T04:56:36.925Z,100.00
2024-02-02T05:02:17.335Z,100.00
2024-02-02T05:07:58.750Z,100.00
2024-02-02T05:13:39.593Z,100.00
2024-02-02T05:19:20.182Z,100.00
2024-02-02T05:25:00.744Z,100.00
2024-02-02T05:30:41.240Z,100.00
2024-02-02T05:36:22.457Z,100.00
2024-02-02T05:42:03.952Z,100.00
2024-02-02T05:47:44.938Z,100.00
2024-02-02T05:53:26.024Z,100.00
2024-02-02T05:59:06.604Z,100.00
2024-02-02T06:05:27.847Z,100.00
2024-02-02T06:11:09.563Z,100.00
2024-02-02T06:16:50.144Z,100.00
2024-02-02T06:22:30.945Z,100.00
2024-02-02T06:28:11.702Z,100.00
2024-02-02T06:33:52.585Z,100.00
2024-02-02T06:39:33.678Z,100.00
2024-02-02T06:45:14.032Z,100.00
2024-02-02T06:50:54.930Z,100.00
2024-02-02T06:56:43.165Z,100.00
2024-02-02T07:02:29.493Z,100.00
2024-02-02T07:08:09.556Z,100.00
2024-02-02T07:13:54.437Z,100.00
2024-02-02T07:19:39.289Z,100.00
2024-02-02T07:25:22.193Z,100.00
2024-02-02T07:31:05.564Z,100.00
2024-02-02T07:36:46.319Z,100.00
2024-02-02T07:42:31.873Z,100.00
2024-02-02T07:48:09.140Z,100.00
2024-02-02T07:53:50.213Z,100.00
2024-02-02T07:59:30.801Z,100.00
2024-02-02T08:05:11.534Z,100.00
2024-02-02T08:10:51.887Z,100.00
2024-02-02T08:16:32.369Z,100.00
2024-02-02T08:22:12.948Z,100.00
2024-02-02T08:27:53.417Z,100.00
2024-02-02T08:33:34.483Z,100.00
2024-02-02T08:39:14.811Z,100.00
2024-02-02T08:44:59.082Z,100.00
2024-02-02T08:50:39.556Z,100.00
2024-02-02T08:56:21.346Z,100.00
2024-02-02T09:02:04.950Z,100.00
2024-02-02T09:07:51.568Z,100.00
2024-02-02T09:13:34.116Z,100.00
2024-02-02T09:19:27.313Z,100.00
2024-02-02T09:25:10.754Z,96.31
2024-02-02T09:31:04.595Z,93.82
2024-02-02T09:36:45.065Z,92.85
2024-02-02T09:42:38.268Z,92.18
2024-02-02T09:48:39.649Z,91.15
2024-02-02T10:05:52.074Z,78.22
2024-02-02T10:12:10.562Z,80.16
2024-02-02T10:18:15.689Z,79.63
2024-02-02T10:24:15.610Z,79.33
2024-02-02T10:30:04.797Z,81.44
2024-02-02T10:35:58.748Z,83.41
2024-02-02T10:41:52.266Z,85.12
2024-02-02T10:47:34.945Z,85.94
2024-02-02T10:53:38.831Z,86.51
2024-02-02T10:59:50.359Z,86.84
2024-02-02T11:05:43.695Z,87.50
2024-02-02T11:11:28.372Z,87.32
2024-02-02T11:17:22.361Z,85.15
2024-02-02T11:23:25.161Z,84.91
2024-02-02T11:29:16.605Z,81.35
2024-02-02T11:35:17.393Z,82.42
2024-02-02T11:40:59.511Z,84.09
2024-02-02T11:46:41.068Z,84.74
2024-02-02T11:52:40.987Z,84.31
2024-02-02T11:58:23.888Z,83.83
2024-02-02T12:04:25.087Z,85.26
2024-02-02T12:10:08.934Z,84.99
2024-02-02T12:15:51.084Z,83.34
2024-02-02T12:21:32.640Z,82.80
2024-02-02T12:27:13.116Z,80.45
2024-02-02T12:32:57.786Z,76.97
2024-02-02T12:38:38.815Z,76.55
2024-02-02T12:44:19.874Z,75.19
2024-02-02T12:50:00.970Z,72.05
2024-02-02T12:55:41.689Z,68.82
2024-02-02T13:05:27.063Z,72.24
2024-02-02T13:11:08.854Z,73.76
2024-02-02T13:16:53.295Z,74.24
2024-02-02T13:22:35.018Z,74.30
2024-02-02T13:28:17.599Z,74.04
2024-02-02T13:34:02.582Z,75.34
2024-02-02T13:39:44.272Z,75.69
2024-02-02T13:45:25.059Z,75.87
2024-02-02T13:51:07.298Z,76.14
2024-02-02T13:56:47.617Z,76.60
2024-02-02T14:02:28.257Z,77.51
2024-02-02T14:08:08.875Z,78.20
2024-02-02T14:13:49.332Z,78.92
2024-02-02T14:19:30.242Z,80.07
2024-02-02T14:25:10.856Z,80.25
2024-02-02T14:30:54.854Z,81.66
2024-02-02T14:36:35.838Z,83.21
2024-02-02T14:42:16.956Z,84.46
2024-02-02T14:47:59.324Z,85.58
2024-02-02T14:53:40.281Z,87.00
2024-02-02T14:59:22.752Z,87.79
2024-02-02T15:05:03.345Z,88.71
2024-02-02T15:10:46.406Z,89.77
2024-02-02T15:16:27.024Z,90.79
2024-02-02T15:22:07.374Z,91.80
2024-02-02T15:27:47.714Z,92.96
2024-02-02T15:33:28.206Z,94.17
2024-02-02T15:39:19.479Z,95.39
2024-02-02T15:44:54.872Z,96.37
2024-02-02T15:50:35.204Z,97.05
2024-02-02T15:56:21.163Z,97.58
2024-02-02T16:05:39.051Z,98.10
2024-02-02T16:11:20.005Z,97.94
2024-02-02T16:17:01.147Z,97.75
2024-02-02T16:22:42.487Z,98.43
2024-02-02T16:28:23.232Z,99.12
2024-02-02T16:34:03.769Z,99.57
2024-02-02T16:39:44.830Z,100.00
2024-02-02T16:45:25.276Z,100.00
2024-02-02T16:51:05.758Z,100.00
2024-02-02T16:56:46.837Z,100.00
2024-02-02T17:02:27.231Z,100.00
2024-02-02T17:08:09.195Z,100.00
2024-02-02T17:13:50.457Z,100.00
2024-02-02T17:19:30.970Z,100.00
2024-02-02T17:25:12.312Z,100.00
2024-02-02T17:30:53.524Z,100.00
2024-02-02T17:36:34.005Z,100.00
2024-02-02T17:42:14.693Z,100.00
2024-02-02T17:47:55.589Z,100.00
2024-02-02T17:53:37.450Z,100.00
2024-02-02T17:59:18.843Z,100.00
2024-02-02T18:04:59.989Z,100.00
2024-02-02T18:10:40.315Z,100.00
2024-02-02T18:16:20.496Z,100.00
2024-02-02T18:22:00.803Z,100.00
2024-02-02T18:27:41.306Z,100.00
2024-02-02T18:33:21.985Z,100.00
2024-02-02T18:39:02.893Z,100.00
2024-02-02T18:44:43.195Z,100.00
2024-02-02T18:50:24.218Z,100.00
2024-02-02T18:56:07.652Z,100.00
2024-02-02T19:05:22.566Z,100.00
2024-02-02T19:11:04.784Z,100.00
2024-02-02T19:16:45.615Z,100.00
2024-02-02T19:22:25.863Z,100.00
2024-02-02T19:28:07.456Z,100.00
2024-02-02T19:33:49.227Z,100.00
2024-02-02T19:39:29.682Z,100.00
2024-02-02T19:45:11.490Z,100.00
2024-02-02T19:50:52.000Z,100.00
2024-02-02T19:56:32.224Z,100.00
2024-02-02T20:02:12.439Z,100.00
2024-02-02T20:07:53.677Z,100.00
2024-02-02T20:13:34.204Z,100.00
2024-02-02T20:19:14.528Z,100.00
2024-02-02T20:24:55.317Z,100.00
2024-02-02T20:30:36.040Z,100.00
2024-02-02T20:36:20.408Z,100.00
2024-02-02T20:42:00.678Z,100.00
2024-02-02T20:47:41.245Z,100.00
2024-02-02T20:53:22.113Z,100.00
2024-02-02T20:59:02.520Z,100.00
2024-02-02T21:04:43.361Z,100.00
2024-02-02T21:10:23.458Z,100.00
2024-02-02T21:16:04.488Z,100.00
2024-02-02T21:21:45.033Z,100.00
2024-02-02T21:27:25.197Z,100.00
2024-02-02T21:33:05.961Z,100.00
2024-02-02T21:38:46.425Z,100.00
2024-02-02T21:44:26.870Z,100.00
2024-02-02T21:50:08.292Z,100.00
2024-02-02T21:55:49.097Z,100.00
2024-02-02T22:05:27.827Z,100.00
2024-02-02T22:11:08.601Z,100.00
2024-02-02T22:16:48.913Z,100.00
2024-02-02T22:22:29.628Z,100.00
2024-02-02T22:28:10.046Z,100.00
2024-02-02T22:33:50.936Z,100.00
2024-02-02T22:39:31.219Z,100.00
2024-02-02T22:45:12.414Z,100.00
2024-02-02T22:50:54.463Z,100.00
2024-02-02T22:56:34.793Z,100.00
2024-02-02T23:02:15.659Z,100.00
2024-02-02T23:07:57.674Z,100.00
2024-02-02T23:13:37.960Z,100.00
2024-02-02T23:19:18.854Z,100.00
2024-02-02T23:24:59.751Z,100.00
2024-02-02T23:30:40.200Z,100.00
2024-02-02T23:36:20.754Z,100.00
2024-02-02T23:42:01.917Z,100.00
2024-02-02T23:47:42.745Z,100.00
2024-02-02T23:53:23.484Z,100.00
2024-02-02T23:59:04.093Z,100.00
